Flight Track Log - Related Links

Times and Time Zones

All times are in EDT time to prevent confusion due to time zone crossing. See the LOT231 flight status page for this flight to view local times or setup timezone preferences in your user account.

Time Position Orientation Groundspeed Altitude Reporting Facility
EDT Latitude Longitude Course Direction KTS MPH feet Rate Location/Type
Mon 02:03:00 PM 52.1577 20.0920 269° West  Level Estimated
Mon 02:04:00 PM 52.1553 19.9170 269° West  Level Estimated
Mon 02:05:00 PM 52.1527 19.7421 269° West  Level Estimated
Mon 02:06:00 PM 52.1498 19.5671 269° West  Level Estimated
Mon 02:07:00 PM 52.1466 19.3922 268° West  Level Estimated
Mon 02:08:00 PM 52.1432 19.2173 268° West  Level Estimated
Mon 02:09:00 PM 52.1395 19.0424 268° West  Level Estimated
Mon 02:10:00 PM 52.1356 18.8676 268° West  Level Estimated
Mon 02:11:00 PM 52.1314 18.6928 268° West  Level Estimated
Mon 02:12:00 PM 52.1270 18.5180 268° West  Level Estimated
Mon 02:13:00 PM 52.1222 18.3433 268° West  Level Estimated
Mon 02:14:00 PM 52.1173 18.1686 267° West  Level Estimated
Mon 02:15:00 PM 52.1120 17.9940 267° West  Level Estimated
Mon 02:16:00 PM 52.1066 17.8194 267° West  Level Estimated
Mon 02:17:00 PM 52.1008 17.6448 267° West  Level Estimated
Mon 02:18:00 PM 52.0948 17.4703 267° West  Level Estimated
Mon 02:19:00 PM 52.0886 17.2958 267° West  Level Estimated
Mon 02:20:00 PM 52.0821 17.1214 267° West  Level Estimated
Mon 02:21:00 PM 52.0753 16.9470 266° West  Level Estimated
Mon 02:22:00 PM 52.0682 16.7727 266° West  Level Estimated
Mon 02:23:00 PM 52.0610 16.5984 266° West  Level Estimated
Mon 02:24:00 PM 52.0534 16.4242 266° West  Level Estimated
Mon 02:25:00 PM 52.0456 16.2501 266° West  Level Estimated
Mon 02:26:00 PM 52.0376 16.0760 266° West  Level Estimated
Mon 02:27:00 PM 52.0293 15.9020 266° West  Level Estimated
Mon 02:28:00 PM 52.0207 15.7280 265° West  Level Estimated
Mon 02:29:00 PM 52.0118 15.5542 265° West  Level Estimated
Mon 02:30:00 PM 52.0028 15.3804 265° West  Level Estimated
Mon 02:31:00 PM 51.9934 15.2066 265° West  Level Estimated
Mon 02:32:00 PM 51.9838 15.0329 265° West  Level Estimated
Mon 02:33:00 PM 51.9740 14.8594 265° West  Level Estimated
Mon 02:34:00 PM 51.9639 14.6858 265° West  Level Estimated
Mon 02:35:00 PM 51.9535 14.5124 265° West  Level Estimated
Mon 02:36:00 PM 51.9429 14.3390 264° West  Level Estimated
Mon 02:37:00 PM 51.9320 14.1658 264° West  Level Estimated
Mon 02:38:00 PM 51.9209 13.9926 264° West  Level Estimated
Mon 02:39:00 PM 51.9095 13.8195 264° West  Level Estimated
Mon 02:40:00 PM 51.8979 13.6465 264° West  Level Estimated
Mon 02:41:00 PM 51.8860 13.4735 264° West  Level Estimated
Mon 02:42:00 PM 51.8739 13.3007 264° West  Level Estimated
Mon 02:43:00 PM 51.8615 13.1280 263° West  Level Estimated
Mon 02:44:00 PM 51.8489 12.9553 263° West  Level Estimated
Mon 02:45:00 PM 51.8360 12.7828 263° West  Level Estimated
Mon 02:46:00 PM 51.8228 12.6103 263° West  Level Estimated
Mon 02:47:00 PM 51.8094 12.4380 263° West  Level Estimated
Mon 02:48:00 PM 51.7958 12.2658 263° West  Level Estimated
Mon 02:49:00 PM 51.7819 12.0936 263° West  Level Estimated
Mon 02:50:00 PM 51.7677 11.9216 262° West  Level Estimated
Mon 02:51:00 PM 51.7533 11.7497 262° West  Level Estimated
Mon 02:52:00 PM 51.7387 11.5779 262° West  Level Estimated
Mon 02:53:00 PM 51.7238 11.4062 262° West  Level Estimated
Mon 02:54:00 PM 51.7086 11.2346 262° West  Level Estimated
Mon 02:55:00 PM 51.6932 11.0632 262° West  Level Estimated
Mon 02:56:00 PM 51.6776 10.8918 262° West  Level Estimated
Mon 02:57:00 PM 51.6617 10.7206 262° West  Level Estimated
Mon 02:58:00 PM 51.6455 10.5495 261° West  Level Estimated
Mon 02:59:00 PM 51.6291 10.3785 261° West  Level Estimated
Mon 03:00:00 PM 51.6124 10.2076 261° West  Level Estimated
Mon 03:01:00 PM 51.5956 10.0369 261° West  Level Estimated
Mon 03:02:00 PM 51.5784 9.8663 261° West  Level Estimated
Mon 03:03:00 PM 51.5610 9.6958 261° West  Level Estimated
Mon 03:04:00 PM 51.5434 9.5255 261° West  Level Estimated
Mon 03:05:00 PM 51.5255 9.3553 260° West  Level Estimated
Mon 03:06:00 PM 51.5074 9.1852 260° West  Level Estimated
Mon 03:07:00 PM 51.4890 9.0153 260° West  Level Estimated
Mon 03:08:00 PM 51.4704 8.8455 260° West  Level Estimated
Mon 03:09:00 PM 51.4515 8.6758 260° West  Level Estimated
Mon 03:10:00 PM 51.4324 8.5063 260° West  Level Estimated
Mon 03:11:00 PM 51.4130 8.3369 260° West  Level Estimated
Mon 03:12:00 PM 51.3934 8.1677 260° West  Level Estimated
Mon 03:13:00 PM 51.3736 7.9986 259° West  Level Estimated
Mon 03:14:00 PM 51.3535 7.8296 259° West  Level Estimated
Mon 03:15:00 PM 51.3332 7.6608 259° West  Level Estimated
Mon 03:16:00 PM 51.3126 7.4922 259° West  Level Estimated
Mon 03:17:00 PM 51.2918 7.3237 259° West  Level Estimated
Mon 03:18:00 PM 51.2707 7.1554 259° West  Level Estimated
Mon 03:19:00 PM 51.2494 6.9872 259° West  Level Estimated
Mon 03:20:00 PM 51.2279 6.8192 258° West  Level Estimated
Mon 03:21:00 PM 51.2061 6.6513 258° West  Level Estimated
Mon 03:22:00 PM 51.1841 6.4836 258° West  Level Estimated
Mon 03:23:00 PM 51.1618 6.3160 258° West  Level Estimated
Mon 03:24:00 PM 51.1393 6.1487 258° West  Level Estimated
Mon 03:25:00 PM 51.1166 5.9814 258° West  Level Estimated
Mon 03:26:00 PM 51.0936 5.8144 258° West  Level Estimated
Mon 03:27:00 PM 51.0704 5.6475 258° West  Level Estimated
Mon 03:28:00 PM 51.0470 5.4808 257° West  Level Estimated
Mon 03:29:00 PM 51.0233 5.3142 257° West  Level Estimated
Mon 03:30:00 PM 50.9994 5.1479 257° West  Level Estimated
Mon 03:31:00 PM 50.9752 4.9816 257° West  Level Estimated
Mon 03:32:00 PM 50.9508 4.8156 257° West  Level Estimated
Mon 03:33:00 PM 50.9262 4.6498 257° West  Level Estimated
Mon 03:34:00 PM 50.9014 4.4844 257° West  Level Estimated
Mon 03:35:00 PM 50.9014 4.4844 112° Southeast  Level Estimated
Mon 03:36:00 PM 50.9014 4.4844 112° Southeast  Level Estimated
Mon 03:37:00 PM 50.9014 4.4844 112° Southeast  Level Estimated
Mon 03:38:00 PM 50.9014 4.4844 112° Southeast  Level Estimated
Mon 03:39:00 PM 50.9014 4.4844 112° Southeast  Level Estimated
Mon 03:40:00 PM 50.9014 4.4844 112° Southeast  Level Estimated
Mon 03:41:00 PM 50.9014 4.4844 112° Southeast  Level Estimated
Mon 03:42:00 PM 50.9014 4.4844 112° Southeast  Level Estimated
Mon 03:43:00 PM 50.9014 4.4844 112° Southeast  Level Estimated
Mon 03:44:00 PM 50.9014 4.4844 112° Southeast  Level Estimated
Mon 03:45:00 PM 50.9014 4.4844 112° Southeast  Level Estimated
Mon 03:46:00 PM 50.9014 4.4844 112° Southeast  Level Estimated
Mon 03:47:00 PM 50.9014 4.4844 112° Southeast  Level Estimated
Mon 03:48:00 PM 50.9014 4.4844 112° Southeast  Level Estimated
Mon 03:49:00 PM 50.9014 4.4844 112° Southeast  Level Estimated
Mon 03:50:00 PM 50.9014 4.4844 112° Southeast  Level Estimated

Login

Don't have an account? Register now (free) for customized features, flight alerts, and more!